Time,TemperatureF,DewpointF,PressureIn,WindDirection,WindDirectionDegrees,WindSpeedMPH,WindSpeedGustMPH,Humidity,HourlyPrecipIn,Conditions,Clouds,dailyrainin,SoftwareType,DateUTC
2013-06-15 00:01:00,54.9,12.2,29.59,NE,35,0.0,0.0,18,0.00,,---,0.00,VWS V13.01,2013-06-15 04:01:00,
2013-06-15 00:02:00,54.9,12.2,29.59,NE,35,0.0,0.0,18,0.00,,---,0.00,VWS V13.01,2013-06-15 04:02:00,
2013-06-15 00:03:00,54.9,12.2,29.59,NE,35,0.0,0.0,18,0.00,,---,0.00,VWS V13.01,2013-06-15 04:03:00,
2013-06-15 00:09:00,54.1,11.6,29.59,NE,35,0.0,0.0,18,0.00,,---,0.00,VWS V13.01,2013-06-15 04:09:00,
2013-06-15 00:14:00,53.8,11.3,29.59,NE,35,0.0,0.0,18,0.00,,---,0.00,VWS V13.01,2013-06-15 04:14:00,
2013-06-15 00:19:00,53.2,10.9,29.59,NE,35,0.0,0.0,18,0.00,,---,0.00,VWS V13.01,2013-06-15 04:19:00,
2013-06-15 00:24:00,52.5,10.2,29.59,NE,35,0.0,0.0,18,0.00,,---,0.00,VWS V13.01,2013-06-15 04:24:00,
2013-06-15 00:30:00,51.6,13.0,29.59,NE,35,0.0,0.0,21,0.00,,---,0.00,VWS V13.01,2013-06-15 04:30:00,
2013-06-15 00:35:00,50.9,12.4,29.62,NE,35,0.0,0.0,21,0.00,,---,0.00,VWS V13.01,2013-06-15 04:35:00,
2013-06-15 00:40:00,50.9,15.4,29.62,NE,35,0.0,0.0,24,0.00,,---,0.00,VWS V13.01,2013-06-15 04:40:00,
2013-06-15 00:45:00,50.7,17.1,29.62,NE,35,0.0,0.0,26,0.00,,---,0.00,VWS V13.01,2013-06-15 04:45:00,
2013-06-15 00:50:00,50.4,16.8,29.62,NE,35,0.0,0.0,26,0.00,,---,0.00,VWS V13.01,2013-06-15 04:50:00,
2013-06-15 00:55:00,50.5,17.8,29.62,NE,35,0.0,0.0,27,0.00,,---,0.00,VWS V13.01,2013-06-15 04:55:00,
2013-06-15 01:00:00,50.2,17.5,29.59,NE,35,0.0,0.0,27,0.00,,---,0.00,VWS V13.01,2013-06-15 05:00:00,
2013-06-15 01:05:00,50.2,19.2,29.59,NE,35,0.0,0.0,29,0.00,,---,0.00,VWS V13.01,2013-06-15 05:05:00,
2013-06-15 01:10:00,49.8,18.9,29.59,NE,35,0.0,0.0,29,0.00,,---,0.00,VWS V13.01,2013-06-15 05:10:00,
2013-06-15 01:16:00,49.6,20.3,29.62,NE,35,0.0,0.0,31,0.00,,---,0.00,VWS V13.01,2013-06-15 05:16:00,
2013-06-15 01:21:00,50.0,22.8,29.62,NE,35,0.0,0.0,34,0.00,,---,0.00,VWS V13.01,2013-06-15 05:21:00,
2013-06-15 01:27:00,49.5,23.6,29.62,NE,35,0.0,0.0,36,0.00,,---,0.00,VWS V13.01,2013-06-15 05:27:00,
2013-06-15 01:32:00,49.1,21.3,29.62,NE,35,0.0,0.0,33,0.00,,---,0.00,VWS V13.01,2013-06-15 05:32:00,
2013-06-15 01:37:00,49.1,21.3,29.62,NE,35,0.0,0.0,33,0.00,,---,0.00,VWS V13.01,2013-06-15 05:37:00,
2013-06-15 01:42:00,49.8,18.9,29.62,NE,35,0.0,0.0,29,0.00,,---,0.00,VWS V13.01,2013-06-15 05:42:00,
2013-06-15 01:47:00,50.9,17.2,29.62,NE,51,4.0,5.4,26,0.00,,---,0.00,VWS V13.01,2013-06-15 05:47:00,
2013-06-15 01:53:00,50.9,17.2,29.62,NNE,33,0.0,0.0,26,0.00,,---,0.00,VWS V13.01,2013-06-15 05:53:00,
2013-06-15 01:58:00,51.4,17.7,29.62,NNE,18,0.0,0.0,26,0.00,,---,0.00,VWS V13.01,2013-06-15 05:58:00,
2013-06-15 02:04:00,51.8,15.2,29.62,North,0,4.7,6.3,23,0.00,,---,0.00,VWS V13.01,2013-06-15 06:04:00,
2013-06-15 02:09:00,51.8,15.2,29.62,North,8,0.0,0.0,23,0.00,,---,0.00,VWS V13.01,2013-06-15 06:09:00,
2013-06-15 02:14:00,52.2,15.5,29.62,North,2,0.0,0.0,23,0.00,,---,0.00,VWS V13.01,2013-06-15 06:14:00,
2013-06-15 02:19:00,51.8,15.2,29.62,NNE,17,0.0,0.0,23,0.00,,---,0.00,VWS V13.01,2013-06-15 06:19:00,
2013-06-15 02:25:00,51.6,16.0,29.62,NNE,16,0.0,0.0,24,0.00,,---,0.00,VWS V13.01,2013-06-15 06:25:00,
2013-06-15 02:30:00,51.8,15.2,29.62,NNE,13,0.0,0.0,23,0.00,,---,0.00,VWS V13.01,2013-06-15 06:30:00,
2013-06-15 02:35:00,51.3,17.6,29.62,NNE,12,0.0,0.0,26,0.00,,---,0.00,VWS V13.01,2013-06-15 06:35:00,
2013-06-15 02:40:00,50.5,17.0,29.62,NNE,12,0.0,0.0,26,0.00,,---,0.00,VWS V13.01,2013-06-15 06:40:00,
2013-06-15 02:45:00,50.0,17.4,29.62,NNE,12,0.0,0.0,27,0.00,,---,0.00,VWS V13.01,2013-06-15 06:45:00,
2013-06-15 02:50:00,49.5,17.7,29.62,NNE,12,0.0,0.0,28,0.00,,---,0.00,VWS V13.01,2013-06-15 06:50:00,
2013-06-15 02:56:00,49.8,18.0,29.62,North,3,4.7,6.3,28,0.00,,---,0.00,VWS V13.01,2013-06-15 06:56:00,
2013-06-15 03:01:00,50.7,18.0,29.62,NNE,18,5.4,7.2,27,0.00,,---,0.00,VWS V13.01,2013-06-15 07:01:00,
2013-06-15 03:06:00,50.7,18.0,29.62,NNE,14,4.7,6.3,27,0.00,,---,0.00,VWS V13.01,2013-06-15 07:06:00,
2013-06-15 03:11:00,50.2,17.5,29.62,NNE,13,0.0,0.0,27,0.00,,---,0.00,VWS V13.01,2013-06-15 07:11:00,
2013-06-15 03:16:00,49.6,17.9,29.62,NNE,13,0.0,0.0,28,0.00,,---,0.00,VWS V13.01,2013-06-15 07:16:00,
2013-06-15 03:21:00,48.9,18.1,29.62,NNE,13,0.0,0.0,29,0.00,,---,0.00,VWS V13.01,2013-06-15 07:21:00,
2013-06-15 03:27:00,48.7,19.5,29.62,NNE,13,0.0,0.0,31,0.00,,---,0.00,VWS V13.01,2013-06-15 07:27:00,
2013-06-15 03:33:00,48.2,23.2,29.62,NNE,13,0.0,0.0,37,0.00,,---,0.00,VWS V13.01,2013-06-15 07:33:00,
2013-06-15 03:38:00,47.8,23.5,29.62,NNE,13,0.0,0.0,38,0.00,,---,0.00,VWS V13.01,2013-06-15 07:38:00,
2013-06-15 03:43:00,47.5,24.4,29.62,NNE,13,0.0,0.0,40,0.00,,---,0.00,VWS V13.01,2013-06-15 07:43:00,
2013-06-15 03:48:00,47.3,24.8,29.62,NNE,13,0.0,0.0,41,0.00,,---,0.00,VWS V13.01,2013-06-15 07:48:00,
2013-06-15 03:53:00,47.1,25.8,29.62,NNE,13,0.0,0.0,43,0.00,,---,0.00,VWS V13.01,2013-06-15 07:53:00,
2013-06-15 03:58:00,46.8,25.5,29.62,NNE,13,0.0,0.0,43,0.00,,---,0.00,VWS V13.01,2013-06-15 07:58:00,
2013-06-15 04:04:00,46.8,24.3,29.62,NNE,13,0.0,0.0,41,0.00,,---,0.00,VWS V13.01,2013-06-15 08:04:00,
2013-06-15 04:09:00,46.8,24.3,29.62,NNE,13,0.0,0.0,41,0.00,,---,0.00,VWS V13.01,2013-06-15 08:09:00,
2013-06-15 04:14:00,47.1,22.8,29.62,NNE,14,0.0,0.0,38,0.00,,---,0.00,VWS V13.01,2013-06-15 08:14:00,
2013-06-15 04:19:00,48.0,21.0,29.62,NNE,18,4.0,5.4,34,0.00,,---,0.00,VWS V13.01,2013-06-15 08:19:00,
2013-06-15 04:24:00,48.6,18.5,29.62,North,349,4.7,6.3,30,0.00,,---,0.00,VWS V13.01,2013-06-15 08:24:00,
2013-06-15 04:29:00,48.7,17.9,29.62,NE,43,0.0,0.0,29,0.00,,---,0.00,VWS V13.01,2013-06-15 08:29:00,
2013-06-15 04:34:00,49.1,18.2,29.62,North,0,3.4,4.5,29,0.00,,---,0.00,VWS V13.01,2013-06-15 08:34:00,
2013-06-15 04:39:00,49.5,17.7,29.62,North,357,5.4,7.2,28,0.00,,---,0.00,VWS V13.01,2013-06-15 08:39:00,
2013-06-15 04:44:00,49.5,17.7,29.62,NNE,18,0.0,0.0,28,0.00,,---,0.00,VWS V13.01,2013-06-15 08:44:00,
2013-06-15 04:49:00,49.5,17.7,29.62,NNE,27,4.0,5.4,28,0.00,,---,0.00,VWS V13.01,2013-06-15 08:49:00,
2013-06-15 04:54:00,49.3,17.6,29.62,NNE,23,0.0,0.0,28,0.00,,---,0.00,VWS V13.01,2013-06-15 08:54:00,
2013-06-15 04:59:00,48.9,18.1,29.65,NNE,12,4.0,5.4,29,0.00,,---,0.00,VWS V13.01,2013-06-15 08:59:00,
2013-06-15 05:05:00,48.9,18.1,29.65,NNE,17,0.0,0.0,29,0.00,,---,0.00,VWS V13.01,2013-06-15 09:05:00,
2013-06-15 05:10:00,48.7,17.9,29.65,NNE,26,0.0,0.0,29,0.00,,---,0.00,VWS V13.01,2013-06-15 09:10:00,
2013-06-15 05:15:00,48.7,18.7,29.62,NNE,24,0.0,0.0,30,0.00,,---,0.00,VWS V13.01,2013-06-15 09:15:00,
2013-06-15 05:21:00,48.7,18.7,29.62,NNE,24,0.0,0.0,30,0.00,,---,0.00,VWS V13.01,2013-06-15 09:21:00,
2013-06-15 05:26:00,48.6,19.3,29.62,NNE,24,0.0,0.0,31,0.00,,---,0.00,VWS V13.01,2013-06-15 09:26:00,
2013-06-15 05:31:00,48.4,19.2,29.62,NNE,24,0.0,0.0,31,0.00,,---,0.00,VWS V13.01,2013-06-15 09:31:00,
2013-06-15 05:36:00,48.0,20.3,29.62,NNE,24,0.0,0.0,33,0.00,,---,0.00,VWS V13.01,2013-06-15 09:36:00,
2013-06-15 05:41:00,48.4,20.6,29.62,NNE,25,0.0,0.0,33,0.00,,---,0.00,VWS V13.01,2013-06-15 09:41:00,
2013-06-15 05:46:00,48.7,20.9,29.62,NNE,16,0.0,0.0,33,0.00,,---,0.00,VWS V13.01,2013-06-15 09:46:00,
2013-06-15 05:51:00,48.9,19.6,29.62,NNE,17,0.0,0.0,31,0.00,,---,0.00,VWS V13.01,2013-06-15 09:51:00,
2013-06-15 05:57:00,49.6,18.7,29.62,NNE,14,0.0,0.0,29,0.00,,---,0.00,VWS V13.01,2013-06-15 09:57:00,
2013-06-15 06:02:00,49.8,18.9,29.62,NNE,18,0.0,0.0,29,0.00,,---,0.00,VWS V13.01,2013-06-15 10:02:00,
2013-06-15 06:07:00,50.4,18.5,29.62,NNE,14,0.0,0.0,28,0.00,,---,0.00,VWS V13.01,2013-06-15 10:07:00,
2013-06-15 06:13:00,51.3,18.4,29.62,North,9,4.0,5.4,27,0.00,,---,0.00,VWS V13.01,2013-06-15 10:13:00,
2013-06-15 06:18:00,52.0,18.2,29.62,North,6,4.0,5.4,26,0.00,,---,0.00,VWS V13.01,2013-06-15 10:18:00,
2013-06-15 06:24:00,53.2,19.3,29.62,NE,38,3.4,4.5,26,0.00,,---,0.00,VWS V13.01,2013-06-15 10:24:00,
2013-06-15 06:29:00,53.4,16.6,29.62,NNE,32,5.4,7.2,23,0.00,,---,0.00,VWS V13.01,2013-06-15 10:29:00,
2013-06-15 06:34:00,54.1,17.2,29.65,NE,38,4.7,6.3,23,0.00,,---,0.00,VWS V13.01,2013-06-15 10:34:00,
2013-06-15 06:39:00,55.6,15.2,29.65,NNE,25,8.1,10.7,20,0.00,,---,0.00,VWS V13.01,2013-06-15 10:39:00,
2013-06-15 06:44:00,56.8,16.2,29.65,North,2,4.0,5.4,20,0.00,,---,0.00,VWS V13.01,2013-06-15 10:44:00,
2013-06-15 06:49:00,57.2,15.3,29.65,NE,39,5.4,7.2,19,0.00,,---,0.00,VWS V13.01,2013-06-15 10:49:00,
2013-06-15 06:55:00,58.3,16.2,29.65,North,11,5.4,7.2,19,0.00,,---,0.00,VWS V13.01,2013-06-15 10:55:00,
2013-06-15 07:00:00,58.5,16.4,29.65,NNE,14,3.4,4.5,19,0.00,,---,0.00,VWS V13.01,2013-06-15 11:00:00,
2013-06-15 07:05:00,59.0,16.8,29.65,North,6,5.4,7.2,19,0.00,,---,0.00,VWS V13.01,2013-06-15 11:05:00,
2013-06-15 07:10:00,59.0,14.3,29.65,NNW,342,8.1,10.7,17,0.00,,---,0.00,VWS V13.01,2013-06-15 11:10:00,
2013-06-15 07:16:00,60.1,15.1,29.65,NNW,344,0.0,0.0,17,0.00,,---,0.00,VWS V13.01,2013-06-15 11:16:00,
2013-06-15 07:21:00,60.6,15.6,29.65,NNW,348,5.4,7.2,17,0.00,,---,0.00,VWS V13.01,2013-06-15 11:21:00,
2013-06-15 07:26:00,60.3,15.3,29.65,NE,50,6.0,8.1,17,0.00,,---,0.00,VWS V13.01,2013-06-15 11:26:00,
2013-06-15 07:31:00,61.0,14.5,29.65,NNW,335,6.0,8.1,16,0.00,,---,0.00,VWS V13.01,2013-06-15 11:31:00,
2013-06-15 07:36:00,62.1,15.4,29.65,NNW,342,3.4,4.5,16,0.00,,---,0.00,VWS V13.01,2013-06-15 11:36:00,
2013-06-15 07:41:00,62.1,15.4,29.65,North,9,4.7,6.3,16,0.00,,---,0.00,VWS V13.01,2013-06-15 11:41:00,
2013-06-15 07:46:00,62.2,15.5,29.65,North,357,6.0,8.1,16,0.00,,---,0.00,VWS V13.01,2013-06-15 11:46:00,
2013-06-15 07:52:00,63.0,16.1,29.65,North,0,4.7,6.3,16,0.00,,---,0.00,VWS V13.01,2013-06-15 11:52:00,
2013-06-15 07:57:00,64.4,15.8,29.65,WNW,285,4.0,5.4,15,0.00,,---,0.00,VWS V13.01,2013-06-15 11:57:00,
2013-06-15 08:02:00,63.3,16.4,29.65,North,11,5.4,7.2,16,0.00,,---,0.00,VWS V13.01,2013-06-15 12:02:00,
2013-06-15 08:08:00,65.1,16.4,29.65,NW,324,4.7,6.3,15,0.00,,---,0.00,VWS V13.01,2013-06-15 12:08:00,
2013-06-15 08:13:00,63.7,16.7,29.65,NW,315,8.1,10.7,16,0.00,,---,0.00,VWS V13.01,2013-06-15 12:13:00,
2013-06-15 08:18:00,64.8,16.1,29.65,NNE,16,8.1,10.7,15,0.00,,---,0.00,VWS V13.01,2013-06-15 12:18:00,
2013-06-15 08:23:00,64.8,16.1,29.65,North,353,6.0,8.1,15,0.00,,---,0.00,VWS V13.01,2013-06-15 12:23:00,
2013-06-15 08:28:00,64.8,16.1,29.65,WNW,295,9.4,12.5,15,0.00,,---,0.00,VWS V13.01,2013-06-15 12:28:00,
2013-06-15 08:33:00,65.8,16.9,29.65,NNE,26,5.4,7.2,15,0.00,,---,0.00,VWS V13.01,2013-06-15 12:33:00,
2013-06-15 08:38:00,66.2,17.2,29.65,NNW,341,6.0,8.1,15,0.00,,---,0.00,VWS V13.01,2013-06-15 12:38:00,
2013-06-15 08:43:00,66.6,17.5,29.65,NE,40,7.4,9.8,15,0.00,,---,0.00,VWS V13.01,2013-06-15 12:43:00,
2013-06-15 08:48:00,66.9,17.8,29.65,North,353,10.7,14.3,15,0.00,,---,0.00,VWS V13.01,2013-06-15 12:48:00,
2013-06-15 08:53:00,68.4,19.0,29.65,NNE,14,8.1,10.7,15,0.00,,---,0.00,VWS V13.01,2013-06-15 12:53:00,
2013-06-15 08:59:00,67.6,18.4,29.65,North,6,6.0,8.1,15,0.00,,---,0.00,VWS V13.01,2013-06-15 12:59:00,
2013-06-15 09:04:00,67.6,18.4,29.65,NE,42,6.0,8.1,15,0.00,,---,0.00,VWS V13.01,2013-06-15 13:04:00,
2013-06-15 09:10:00,67.5,18.2,29.65,NW,316,4.7,6.3,15,0.00,,---,0.00,VWS V13.01,2013-06-15 13:10:00,
2013-06-15 09:15:00,67.6,18.4,29.65,NNW,330,15.1,20.1,15,0.00,,---,0.00,VWS V13.01,2013-06-15 13:15:00,
2013-06-15 09:20:00,68.0,18.7,29.65,North,0,12.4,16.6,15,0.00,,---,0.00,VWS V13.01,2013-06-15 13:20:00,
2013-06-15 09:25:00,69.3,19.7,29.65,NNW,341,10.1,13.4,15,0.00,,---,0.00,VWS V13.01,2013-06-15 13:25:00,
2013-06-15 09:30:00,70.5,19.1,29.65,NW,308,5.4,7.2,14,0.00,,---,0.00,VWS V13.01,2013-06-15 13:30:00,
2013-06-15 09:35:00,70.0,18.6,29.65,NNE,16,13.1,17.4,14,0.00,,---,0.00,VWS V13.01,2013-06-15 13:35:00,
2013-06-15 09:40:00,70.2,18.8,29.65,NNE,19,5.4,7.2,14,0.00,,---,0.00,VWS V13.01,2013-06-15 13:40:00,
2013-06-15 09:46:00,70.5,19.1,29.62,North,357,14.4,19.2,14,0.00,,---,0.00,VWS V13.01,2013-06-15 13:46:00,
2013-06-15 09:51:00,71.1,19.5,29.62,NNE,20,9.4,12.5,14,0.00,,---,0.00,VWS V13.01,2013-06-15 13:51:00,
2013-06-15 09:56:00,70.2,18.8,29.62,NNW,345,10.1,13.4,14,0.00,,---,0.00,VWS V13.01,2013-06-15 13:56:00,
2013-06-15 10:01:00,70.9,19.4,29.62,NE,38,7.4,9.8,14,0.00,,---,0.00,VWS V13.01,2013-06-15 14:01:00,
2013-06-15 10:06:00,70.9,19.4,29.62,North,349,12.1,16.1,14,0.00,,---,0.00,VWS V13.01,2013-06-15 14:06:00,
2013-06-15 10:11:00,71.8,20.1,29.62,NNE,18,16.4,21.9,14,0.00,,---,0.00,VWS V13.01,2013-06-15 14:11:00,
2013-06-15 10:16:00,72.0,20.2,29.62,NNW,335,7.4,9.8,14,0.00,,---,0.00,VWS V13.01,2013-06-15 14:16:00,
2013-06-15 10:22:00,69.8,18.5,29.62,North,353,9.4,12.5,14,0.00,,---,0.00,VWS V13.01,2013-06-15 14:22:00,
2013-06-15 10:27:00,70.3,18.9,29.62,NNE,17,7.4,9.8,14,0.00,,---,0.00,VWS V13.01,2013-06-15 14:27:00,
2013-06-15 10:32:00,69.3,19.7,29.62,NNW,341,8.7,11.6,15,0.00,,---,0.00,VWS V13.01,2013-06-15 14:32:00,
2013-06-15 10:37:00,69.8,18.5,29.62,North,3,11.4,15.2,14,0.00,,---,0.00,VWS V13.01,2013-06-15 14:37:00,
2013-06-15 10:42:00,71.4,19.8,29.62,NE,38,8.1,10.7,14,0.00,,---,0.00,VWS V13.01,2013-06-15 14:42:00,
2013-06-15 10:47:00,73.4,19.6,29.62,NNE,27,8.1,10.7,13,0.00,,---,0.00,VWS V13.01,2013-06-15 14:47:00,
2013-06-15 10:53:00,73.4,19.6,29.62,NNW,343,8.7,11.6,13,0.00,,---,0.00,VWS V13.01,2013-06-15 14:53:00,
2013-06-15 10:58:00,74.1,20.2,29.62,North,3,3.4,4.5,13,0.00,,---,0.00,VWS V13.01,2013-06-15 14:58:00,
2013-06-15 11:03:00,72.9,20.9,29.62,NNW,327,9.4,12.5,14,0.00,,---,0.00,VWS V13.01,2013-06-15 15:03:00,
2013-06-15 11:08:00,71.6,19.9,29.62,ENE,65,8.7,11.6,14,0.00,,---,0.00,VWS V13.01,2013-06-15 15:08:00,
2013-06-15 11:14:00,70.9,19.4,29.62,NNW,333,12.4,16.6,14,0.00,,---,0.00,VWS V13.01,2013-06-15 15:14:00,
2013-06-15 11:19:00,71.6,19.9,29.62,North,2,12.1,16.1,14,0.00,,---,0.00,VWS V13.01,2013-06-15 15:19:00,
2013-06-15 11:24:00,73.9,20.0,29.62,NNW,342,13.1,17.4,13,0.00,,---,0.00,VWS V13.01,2013-06-15 15:24:00,
2013-06-15 11:29:00,73.4,19.6,29.62,North,357,12.1,16.1,13,0.00,,---,0.00,VWS V13.01,2013-06-15 15:29:00,
2013-06-15 11:34:00,72.1,20.4,29.62,NE,35,9.4,12.5,14,0.00,,---,0.00,VWS V13.01,2013-06-15 15:34:00,
2013-06-15 11:39:00,73.4,19.6,29.62,North,2,15.1,20.1,13,0.00,,---,0.00,VWS V13.01,2013-06-15 15:39:00,
2013-06-15 11:45:00,73.4,19.6,29.62,NW,326,4.0,5.4,13,0.00,,---,0.00,VWS V13.01,2013-06-15 15:45:00,
2013-06-15 11:50:00,73.8,19.9,29.62,NNW,340,8.7,11.6,13,0.00,,---,0.00,VWS V13.01,2013-06-15 15:50:00,
2013-06-15 11:55:00,75.2,21.0,29.62,ENE,69,4.7,6.3,13,0.00,,---,0.00,VWS V13.01,2013-06-15 15:55:00,
2013-06-15 12:00:00,72.7,20.8,29.62,NE,38,6.0,8.1,14,0.00,,---,0.00,VWS V13.01,2013-06-15 16:00:00,
2013-06-15 12:06:00,72.7,20.8,29.62,NNW,333,7.4,9.8,14,0.00,,---,0.00,VWS V13.01,2013-06-15 16:06:00,
2013-06-15 12:11:00,71.2,19.6,29.62,North,8,12.1,16.1,14,0.00,,---,0.00,VWS V13.01,2013-06-15 16:11:00,
2013-06-15 12:16:00,72.5,20.6,29.62,NNW,344,7.4,9.8,14,0.00,,---,0.00,VWS V13.01,2013-06-15 16:16:00,
2013-06-15 12:21:00,74.3,20.3,29.62,North,3,13.1,17.4,13,0.00,,---,0.00,VWS V13.01,2013-06-15 16:21:00,
2013-06-15 12:27:00,71.6,19.9,29.62,NNW,332,12.4,16.6,14,0.00,,---,0.00,VWS V13.01,2013-06-15 16:27:00,
2013-06-15 12:32:00,72.1,20.4,29.62,North,3,11.4,15.2,14,0.00,,---,0.00,VWS V13.01,2013-06-15 16:32:00,
2013-06-15 12:37:00,75.0,20.9,29.62,NNE,16,9.4,12.5,13,0.00,,---,0.00,VWS V13.01,2013-06-15 16:37:00,
2013-06-15 12:44:00,75.7,21.5,29.62,NW,315,8.7,11.6,13,0.00,,---,0.00,VWS V13.01,2013-06-15 16:44:00,
2013-06-15 12:50:00,72.3,20.5,29.59,West,281,8.7,11.6,14,0.00,,---,0.00,VWS V13.01,2013-06-15 16:50:00,
2013-06-15 12:55:00,75.9,21.6,29.59,NNE,13,5.4,7.2,13,0.00,,---,0.00,VWS V13.01,2013-06-15 16:55:00,
2013-06-15 13:01:00,75.2,21.0,29.59,North,0,13.1,17.4,13,0.00,,---,0.00,VWS V13.01,2013-06-15 17:01:00,
2013-06-15 13:06:00,72.5,20.6,29.59,NNW,344,12.4,16.6,14,0.00,,---,0.00,VWS V13.01,2013-06-15 17:06:00,
2013-06-15 13:12:00,72.0,20.2,29.59,North,9,7.4,9.8,14,0.00,,---,0.00,VWS V13.01,2013-06-15 17:12:00,
2013-06-15 13:17:00,73.9,20.0,29.59,NNE,17,9.4,12.5,13,0.00,,---,0.00,VWS V13.01,2013-06-15 17:17:00,
2013-06-15 13:23:00,75.9,21.6,29.59,NNW,346,16.4,21.9,13,0.00,,---,0.00,VWS V13.01,2013-06-15 17:23:00,
2013-06-15 13:28:00,74.1,20.2,29.59,NNE,15,12.4,16.6,13,0.00,,---,0.00,VWS V13.01,2013-06-15 17:28:00,
2013-06-15 13:33:00,74.8,20.7,29.59,NNW,333,12.4,16.6,13,0.00,,---,0.00,VWS V13.01,2013-06-15 17:33:00,
2013-06-15 13:40:00,73.6,19.8,29.59,North,3,15.1,20.1,13,0.00,,---,0.00,VWS V13.01,2013-06-15 17:40:00,
2013-06-15 13:45:00,73.8,19.9,29.59,North,353,19.1,25.5,13,0.00,,---,0.00,VWS V13.01,2013-06-15 17:45:00,
2013-06-15 13:50:00,75.6,21.3,29.59,NNW,332,8.1,10.7,13,0.00,,---,0.00,VWS V13.01,2013-06-15 17:50:00,
2013-06-15 13:56:00,76.3,21.9,29.59,NNW,345,8.1,10.7,13,0.00,,---,0.00,VWS V13.01,2013-06-15 17:56:00,
2013-06-15 14:01:00,77.5,22.9,29.56,NNW,340,9.4,12.5,13,0.00,,---,0.00,VWS V13.01,2013-06-15 18:01:00,
2013-06-15 14:08:00,74.8,20.7,29.56,NNW,339,12.1,16.1,13,0.00,,---,0.00,VWS V13.01,2013-06-15 18:08:00,
2013-06-15 14:14:00,77.5,22.9,29.56,NW,326,6.0,8.1,13,0.00,,---,0.00,VWS V13.01,2013-06-15 18:14:00,
2013-06-15 14:19:00,79.2,22.2,29.56,NW,326,8.1,10.7,12,0.00,,---,0.00,VWS V13.01,2013-06-15 18:19:00,
2013-06-15 14:25:00,76.3,21.9,29.56,NW,322,17.1,22.8,13,0.00,,---,0.00,VWS V13.01,2013-06-15 18:25:00,
2013-06-15 14:30:00,78.3,23.4,29.56,NNW,327,8.7,11.6,13,0.00,,---,0.00,VWS V13.01,2013-06-15 18:30:00,
2013-06-15 14:36:00,75.2,21.0,29.56,North,353,6.0,8.1,13,0.00,,---,0.00,VWS V13.01,2013-06-15 18:36:00,
2013-06-15 14:42:00,74.7,20.6,29.56,NNW,333,11.4,15.2,13,0.00,,---,0.00,VWS V13.01,2013-06-15 18:42:00,
2013-06-15 14:48:00,74.3,20.3,29.56,North,9,12.4,16.6,13,0.00,,---,0.00,VWS V13.01,2013-06-15 18:48:00,
2013-06-15 14:54:00,74.8,20.7,29.56,North,2,12.4,16.6,13,0.00,,---,0.00,VWS V13.01,2013-06-15 18:54:00,
2013-06-15 14:59:00,74.8,20.7,29.56,North,3,25.5,34.0,13,0.00,,---,0.00,VWS V13.01,2013-06-15 18:59:00,
2013-06-15 15:04:00,79.3,22.4,29.56,North,3,16.4,21.9,12,0.00,,---,0.00,VWS V13.01,2013-06-15 19:04:00,
2013-06-15 15:09:00,79.0,22.1,29.56,NNW,341,12.1,16.1,12,0.00,,---,0.00,VWS V13.01,2013-06-15 19:09:00,
2013-06-15 15:15:00,76.8,22.3,29.56,North,353,15.8,21.0,13,0.00,,---,0.00,VWS V13.01,2013-06-15 19:15:00,
2013-06-15 15:21:00,78.1,23.3,29.56,WNW,301,21.8,29.1,13,0.00,,---,0.00,VWS V13.01,2013-06-15 19:21:00,
2013-06-15 15:26:00,77.0,22.4,29.56,NW,317,9.4,12.5,13,0.00,,---,0.00,VWS V13.01,2013-06-15 19:26:00,
2013-06-15 15:32:00,78.6,23.7,29.56,NNW,332,9.4,12.5,13,0.00,,---,0.00,VWS V13.01,2013-06-15 19:32:00,
2013-06-15 15:38:00,73.9,20.0,29.56,NW,309,5.4,7.2,13,0.00,,---,0.00,VWS V13.01,2013-06-15 19:38:00,
2013-06-15 15:44:00,76.8,22.3,29.56,NNE,19,16.4,21.9,13,0.00,,---,0.00,VWS V13.01,2013-06-15 19:44:00,
2013-06-15 15:49:00,76.5,22.0,29.56,NNW,331,15.8,21.0,13,0.00,,---,0.00,VWS V13.01,2013-06-15 19:49:00,
2013-06-15 15:55:00,80.6,27.0,29.56,NNW,337,8.7,11.6,14,0.00,,---,0.00,VWS V13.01,2013-06-15 19:55:00,
2013-06-15 16:01:00,78.1,26.7,29.56,North,353,12.1,16.1,15,0.00,,---,0.00,VWS V13.01,2013-06-15 20:01:00,
2013-06-15 16:06:00,77.5,22.9,29.56,NW,320,23.2,30.9,13,0.00,,---,0.00,VWS V13.01,2013-06-15 20:06:00,
2013-06-15 16:11:00,78.1,23.3,29.56,North,8,17.1,22.8,13,0.00,,---,0.00,VWS V13.01,2013-06-15 20:11:00,
2013-06-15 16:16:00,79.3,22.4,29.56,NW,316,4.0,5.4,12,0.00,,---,0.00,VWS V13.01,2013-06-15 20:16:00,
2013-06-15 16:22:00,76.5,22.0,29.56,North,3,6.7,8.9,13,0.00,,---,0.00,VWS V13.01,2013-06-15 20:22:00,
2013-06-15 16:28:00,74.8,20.7,29.56,NNW,333,20.5,27.3,13,0.00,,---,0.00,VWS V13.01,2013-06-15 20:28:00,
2013-06-15 16:34:00,74.5,20.5,29.56,NNW,348,13.1,17.4,13,0.00,,---,0.00,VWS V13.01,2013-06-15 20:34:00,
2013-06-15 16:39:00,74.5,20.5,29.56,WNW,297,13.1,17.4,13,0.00,,---,0.00,VWS V13.01,2013-06-15 20:39:00,
2013-06-15 16:45:00,73.0,21.1,29.56,NNW,334,21.1,28.2,14,0.00,,---,0.00,VWS V13.01,2013-06-15 20:45:00,
2013-06-15 16:51:00,77.0,22.4,29.56,North,353,14.4,19.2,13,0.00,,---,0.00,VWS V13.01,2013-06-15 20:51:00,
2013-06-15 16:56:00,77.9,23.1,29.56,North,4,8.7,11.6,13,0.00,,---,0.00,VWS V13.01,2013-06-15 20:56:00,
2013-06-15 17:02:00,78.3,23.4,29.53,NNW,342,12.1,16.1,13,0.00,,---,0.00,VWS V13.01,2013-06-15 21:02:00,
2013-06-15 17:07:00,77.4,22.7,29.53,NNW,335,12.4,16.6,13,0.00,,---,0.00,VWS V13.01,2013-06-15 21:07:00,
2013-06-15 17:14:00,76.6,22.1,29.53,North,357,25.2,33.6,13,0.00,,---,0.00,VWS V13.01,2013-06-15 21:14:00,
2013-06-15 17:20:00,77.7,23.0,29.53,NNE,21,19.8,26.4,13,0.00,,---,0.00,VWS V13.01,2013-06-15 21:20:00,
2013-06-15 17:25:00,78.3,23.4,29.53,NNE,28,8.1,10.7,13,0.00,,---,0.00,VWS V13.01,2013-06-15 21:25:00,
2013-06-15 17:30:00,78.3,23.4,29.53,NNW,346,6.0,8.1,13,0.00,,---,0.00,VWS V13.01,2013-06-15 21:30:00,
2013-06-15 17:35:00,80.4,28.6,29.53,NNE,19,8.1,10.7,15,0.00,,---,0.00,VWS V13.01,2013-06-15 21:35:00,
2013-06-15 17:40:00,78.6,27.1,29.53,NE,49,10.7,14.3,15,0.00,,---,0.00,VWS V13.01,2013-06-15 21:40:00,
2013-06-15 17:46:00,78.4,23.6,29.53,NNW,340,7.4,9.8,13,0.00,,---,0.00,VWS V13.01,2013-06-15 21:46:00,
2013-06-15 17:51:00,78.6,23.7,29.53,North,350,9.4,12.5,13,0.00,,---,0.00,VWS V13.01,2013-06-15 21:51:00,
2013-06-15 17:57:00,75.2,21.0,29.53,NNE,21,4.0,5.4,13,0.00,,---,0.00,VWS V13.01,2013-06-15 21:57:00,
2013-06-15 18:02:00,77.9,23.1,29.53,WNW,300,8.1,10.7,13,0.00,,---,0.00,VWS V13.01,2013-06-15 22:02:00,
2013-06-15 18:07:00,77.2,22.6,29.53,NNW,330,11.4,15.2,13,0.00,,---,0.00,VWS V13.01,2013-06-15 22:07:00,
2013-06-15 18:13:00,77.4,22.7,29.53,North,11,15.8,21.0,13,0.00,,---,0.00,VWS V13.01,2013-06-15 22:13:00,
2013-06-15 18:19:00,77.5,22.9,29.53,WNW,296,8.1,10.7,13,0.00,,---,0.00,VWS V13.01,2013-06-15 22:19:00,
2013-06-15 18:25:00,77.4,22.7,29.53,North,353,9.4,12.5,13,0.00,,---,0.00,VWS V13.01,2013-06-15 22:25:00,
2013-06-15 18:31:00,77.4,22.7,29.53,North,353,5.4,7.2,13,0.00,,---,0.00,VWS V13.01,2013-06-15 22:31:00,
2013-06-15 18:37:00,78.1,23.3,29.53,NNW,346,8.7,11.6,13,0.00,,---,0.00,VWS V13.01,2013-06-15 22:37:00,
2013-06-15 18:43:00,76.5,22.0,29.53,NW,321,12.1,16.1,13,0.00,,---,0.00,VWS V13.01,2013-06-15 22:43:00,
2013-06-15 18:48:00,76.1,21.7,29.53,NW,326,7.4,9.8,13,0.00,,---,0.00,VWS V13.01,2013-06-15 22:48:00,
2013-06-15 18:54:00,78.4,23.6,29.53,North,349,4.0,5.4,13,0.00,,---,0.00,VWS V13.01,2013-06-15 22:54:00,
2013-06-15 18:59:00,76.5,22.0,29.53,NNE,26,9.4,12.5,13,0.00,,---,0.00,VWS V13.01,2013-06-15 22:59:00,
2013-06-15 19:04:00,76.1,21.7,29.53,North,357,9.4,12.5,13,0.00,,---,0.00,VWS V13.01,2013-06-15 23:04:00,
2013-06-15 19:10:00,73.6,19.8,29.53,NE,34,4.7,6.3,13,0.00,,---,0.00,VWS V13.01,2013-06-15 23:10:00,
2013-06-15 19:16:00,72.7,20.8,29.53,NE,43,7.4,9.8,14,0.00,,---,0.00,VWS V13.01,2013-06-15 23:16:00,
2013-06-15 19:21:00,73.9,20.0,29.53,NNE,25,6.7,8.9,13,0.00,,---,0.00,VWS V13.01,2013-06-15 23:21:00,
2013-06-15 19:26:00,74.1,20.2,29.53,North,357,12.1,16.1,13,0.00,,---,0.00,VWS V13.01,2013-06-15 23:26:00,
2013-06-15 19:32:00,72.9,20.9,29.53,North,8,5.4,7.2,14,0.00,,---,0.00,VWS V13.01,2013-06-15 23:32:00,
2013-06-15 19:37:00,72.7,20.8,29.53,NNW,342,13.1,17.4,14,0.00,,---,0.00,VWS V13.01,2013-06-15 23:37:00,
2013-06-15 19:43:00,72.3,20.5,29.53,North,350,12.1,16.1,14,0.00,,---,0.00,VWS V13.01,2013-06-15 23:43:00,
2013-06-15 19:48:00,72.1,20.4,29.53,North,357,4.7,6.3,14,0.00,,---,0.00,VWS V13.01,2013-06-15 23:48:00,
2013-06-15 19:54:00,71.6,19.9,29.53,North,353,4.7,6.3,14,0.00,,---,0.00,VWS V13.01,2013-06-15 23:54:00,
2013-06-15 19:59:00,71.2,19.6,29.53,North,353,4.7,6.3,14,0.00,,---,0.00,VWS V13.01,2013-06-15 23:59:00,
2013-06-15 20:06:00,70.9,19.4,29.53,WNW,296,5.4,7.2,14,0.00,,---,0.00,VWS V13.01,2013-06-16 00:06:00,
2013-06-15 20:11:00,70.7,19.2,29.53,North,357,6.0,8.1,14,0.00,,---,0.00,VWS V13.01,2013-06-16 00:11:00,
2013-06-15 20:17:00,70.2,18.8,29.53,NNW,338,3.4,4.5,14,0.00,,---,0.00,VWS V13.01,2013-06-16 00:17:00,
2013-06-15 20:22:00,69.8,18.5,29.53,North,357,4.7,6.3,14,0.00,,---,0.00,VWS V13.01,2013-06-16 00:22:00,
2013-06-15 20:28:00,69.3,19.7,29.53,NNE,14,8.7,11.6,15,0.00,,---,0.00,VWS V13.01,2013-06-16 00:28:00,
2013-06-15 20:34:00,68.9,19.4,29.53,North,9,4.7,6.3,15,0.00,,---,0.00,VWS V13.01,2013-06-16 00:34:00,
2013-06-15 20:39:00,68.4,19.0,29.53,NNW,332,5.4,7.2,15,0.00,,---,0.00,VWS V13.01,2013-06-16 00:39:00,
2013-06-15 20:44:00,67.5,18.2,29.53,North,353,4.7,6.3,15,0.00,,---,0.00,VWS V13.01,2013-06-16 00:44:00,
2013-06-15 20:50:00,66.9,17.8,29.53,North,353,0.0,0.0,15,0.00,,---,0.00,VWS V13.01,2013-06-16 00:50:00,
2013-06-15 20:55:00,66.4,17.4,29.53,NNW,336,0.0,0.0,15,0.00,,---,0.00,VWS V13.01,2013-06-16 00:55:00,
2013-06-15 21:00:00,65.3,16.5,29.53,NW,320,0.0,0.0,15,0.00,,---,0.00,VWS V13.01,2013-06-16 01:00:00,
2013-06-15 21:06:00,64.8,16.1,29.53,North,1,0.0,0.0,15,0.00,,---,0.00,VWS V13.01,2013-06-16 01:06:00,
2013-06-15 21:11:00,65.3,16.5,29.53,North,10,0.0,0.0,15,0.00,,---,0.00,VWS V13.01,2013-06-16 01:11:00,
2013-06-15 21:16:00,65.5,16.6,29.56,North,357,8.1,10.7,15,0.00,,---,0.00,VWS V13.01,2013-06-16 01:16:00,
2013-06-15 21:22:00,66.0,17.1,29.56,North,6,5.4,7.2,15,0.00,,---,0.00,VWS V13.01,2013-06-16 01:22:00,
2013-06-15 21:27:00,66.4,17.4,29.56,NNW,338,4.7,6.3,15,0.00,,---,0.00,VWS V13.01,2013-06-16 01:27:00,
2013-06-15 21:32:00,66.2,17.2,29.56,WNW,298,6.0,8.1,15,0.00,,---,0.00,VWS V13.01,2013-06-16 01:32:00,
2013-06-15 21:37:00,66.0,17.1,29.56,North,353,4.0,5.4,15,0.00,,---,0.00,VWS V13.01,2013-06-16 01:37:00,
2013-06-15 21:42:00,66.0,17.1,29.56,NNW,337,7.4,9.8,15,0.00,,---,0.00,VWS V13.01,2013-06-16 01:42:00,
2013-06-15 21:48:00,66.4,17.4,29.56,NNW,333,12.4,16.6,15,0.00,,---,0.00,VWS V13.01,2013-06-16 01:48:00,
2013-06-15 21:54:00,66.4,17.4,29.56,North,353,4.0,5.4,15,0.00,,---,0.00,VWS V13.01,2013-06-16 01:54:00,
2013-06-15 21:59:00,65.8,16.9,29.56,North,4,4.7,6.3,15,0.00,,---,0.00,VWS V13.01,2013-06-16 01:59:00,
2013-06-15 22:04:00,65.7,16.8,29.56,North,357,9.4,12.5,15,0.00,,---,0.00,VWS V13.01,2013-06-16 02:04:00,
2013-06-15 22:10:00,65.5,16.6,29.56,WNW,300,8.1,10.7,15,0.00,,---,0.00,VWS V13.01,2013-06-16 02:10:00,
2013-06-15 22:15:00,65.5,16.6,29.56,WNW,289,5.4,7.2,15,0.00,,---,0.00,VWS V13.01,2013-06-16 02:15:00,
2013-06-15 22:21:00,65.5,16.6,29.56,North,357,8.7,11.6,15,0.00,,---,0.00,VWS V13.01,2013-06-16 02:21:00,
2013-06-15 22:27:00,64.9,16.2,29.56,North,2,4.0,5.4,15,0.00,,---,0.00,VWS V13.01,2013-06-16 02:27:00,
2013-06-15 22:33:00,65.1,16.4,29.56,NW,315,9.4,12.5,15,0.00,,---,0.00,VWS V13.01,2013-06-16 02:33:00,
2013-06-15 22:38:00,64.9,16.2,29.56,NE,41,16.4,21.9,15,0.00,,---,0.00,VWS V13.01,2013-06-16 02:38:00,
2013-06-15 22:43:00,64.8,16.1,29.56,NW,313,11.4,15.2,15,0.00,,---,0.00,VWS V13.01,2013-06-16 02:43:00,
2013-06-15 22:49:00,64.6,15.9,29.56,NNW,346,5.4,7.2,15,0.00,,---,0.00,VWS V13.01,2013-06-16 02:49:00,
2013-06-15 22:55:00,64.2,17.1,29.56,NW,319,6.0,8.1,16,0.00,,---,0.00,VWS V13.01,2013-06-16 02:55:00,
2013-06-15 23:01:00,63.7,19.4,29.56,NNW,329,4.7,6.3,18,0.00,,---,0.00,VWS V13.01,2013-06-16 03:01:00,
2013-06-15 23:06:00,63.3,19.1,29.56,NNW,340,4.0,5.4,18,0.00,,---,0.00,VWS V13.01,2013-06-16 03:06:00,
2013-06-15 23:12:00,63.1,19.0,29.56,WNW,293,4.7,6.3,18,0.00,,---,0.00,VWS V13.01,2013-06-16 03:12:00,
2013-06-15 23:18:00,63.0,18.8,29.56,NNW,328,8.1,10.7,18,0.00,,---,0.00,VWS V13.01,2013-06-16 03:18:00,
2013-06-15 23:24:00,63.0,18.8,29.56,NW,320,6.0,8.1,18,0.00,,---,0.00,VWS V13.01,2013-06-16 03:24:00,
2013-06-15 23:29:00,62.8,18.7,29.56,North,357,9.4,12.5,18,0.00,,---,0.00,VWS V13.01,2013-06-16 03:29:00,
2013-06-15 23:36:00,63.0,18.8,29.56,North,350,7.4,9.8,18,0.00,,---,0.00,VWS V13.01,2013-06-16 03:36:00,
2013-06-15 23:42:00,62.6,18.5,29.56,WSW,254,9.4,12.5,18,0.00,,---,0.00,VWS V13.01,2013-06-16 03:42:00,
2013-06-15 23:47:00,62.6,18.5,29.56,North,0,4.7,6.3,18,0.00,,---,0.00,VWS V13.01,2013-06-16 03:47:00,
2013-06-15 23:53:00,62.6,18.5,29.56,North,1,6.0,8.1,18,0.00,,---,0.00,VWS V13.01,2013-06-16 03:53:00,
2013-06-15 23:59:00,62.6,18.5,29.56,North,353,9.4,12.5,18,0.00,,---,0.00,VWS V13.01,2013-06-16 03:59:00,